Latest Weather Observations for Beaudesert AWS

IDQ60801

Issued at 8:32 pm EST Monday 20 February 2017 (issued every 30 minutes, with the page automatically refreshed every 10 minutes)

About weather observations | Map of weather stations | Latest weather observations for QLD | Other Formats
Station Details ID: 040983 Name: BEAUDESERT DRUMLEY STREET Lat: -27.97 Lon: 152.99 Height: 47.81 m
Data from the previous 72 hours. | See also: Recent months at Beaudesert AWS
Date/Time
EST
Temp
°C
App
Temp
°C
Dew
Point
°C
Rel
Hum
%
Delta-T
°C
Wind Press
QNH
hPa
Press
MSL
hPa
Rain since
9am
mm
Dir  Spd
km/h
Gust
km/h
Spd
kts
Gust
kts
20/08:00pm 24.5 25.5 18.7 70 3.7 E 11 19 6 10 1013.2 1013.0 0.0
20/07:30pm 25.0 25.1 17.5 63 4.7 E 13 20 7 11 1012.6 1012.3 0.0
20/07:00pm 25.2 25.7 17.4 62 4.9 E 11 17 6 9 1012.2 1011.9 0.0
20/06:30pm 25.7 26.8 17.9 62 4.9 ENE 9 17 5 9 1011.7 1011.4 0.0
20/06:00pm 26.7 27.2 17.5 57 5.8 E 11 17 6 9 1011.0 1010.7 0.0
20/05:30pm 27.8 27.3 15.8 48 7.4 E 13 20 7 11 1010.6 1010.3 0.0
20/05:00pm 28.8 28.4 15.3 43 8.3 E 11 24 6 13 1009.9 1009.6 0.0
20/04:30pm 30.0 30.1 16.4 44 8.5 ENE 11 19 6 10 1009.4 1009.1 0.0
20/04:00pm 30.3 30.2 16.0 42 8.9 NE 11 19 6 10 1009.0 1008.7 0.0
20/03:30pm 30.3 29.3 15.6 41 9.1 NE 15 28 8 15 1009.1 1008.8 0.0
20/03:00pm 32.0 32.0 16.3 39 9.9 N 11 19 6 10 1008.9 1008.6 0.0
20/02:30pm 32.1 32.1 12.3 29 11.7 W 4 13 2 7 1008.8 1008.5 0.0
20/02:00pm 32.0 32.2 13.2 31 11.3 NNW 4 9 2 5 1009.1 1008.8 0.0
20/01:30pm 31.0 31.0 12.4 32 11.0 S 4 9 2 5 1009.3 1009.0 0.0
20/01:00pm 31.4 30.9 12.7 32 11.1 WNW 7 11 4 6 1009.6 1009.3 0.0
20/12:30pm 30.8 29.9 12.7 33 10.7 SSW 9 19 5 10 1010.0 1009.7 0.0
20/12:00pm 31.0 31.8 15.8 40 9.5 SSE 6 13 3 7 1010.3 1010.0 0.0
20/11:30am 30.4 30.7 16.0 41 9.0 WSW 9 17 5 9 1010.9 1010.6 0.0
20/11:00am 29.3 30.4 16.5 46 8.0 WSW 6 17 3 9 1011.3 1011.0 0.0
20/10:30am 28.5 28.6 15.4 45 8.0 SSW 9 19 5 10 1011.5 1011.2 0.0
20/10:00am 27.9 28.4 16.5 50 7.1 SSW 9 15 5 8 1011.6 1011.3 0.0
20/09:30am 26.8 27.7 18.4 60 5.4 SW 11 17 6 9 1011.6 1011.3 0.0
20/09:00am 25.5 26.9 18.7 66 4.3 SW 9 15 5 8 1011.8 1011.5 9.2
20/08:30am 24.4 26.4 19.9 76 2.9 WSW 9 13 5 7 1011.9 1011.6 9.2
20/08:00am 23.5 25.4 19.8 80 2.4 SW 9 13 5 7 1011.7 1011.4 9.2
20/07:30am 22.0 24.8 20.5 91 1.0 W 6 9 3 5 1011.4 1011.1 9.2
20/07:00am 21.2 24.4 20.4 95 0.5 WSW 4 6 2 3 1011.0 1010.7 9.2
20/06:30am 20.6 24.0 20.1 97 0.3 NNW 2 4 1 2 1010.5 1010.2 9.2
20/06:00am 20.1 23.3 19.8 98 0.2 E 2 4 1 2 1009.8 1009.5 9.2
20/05:30am 19.9 22.7 19.6 98 0.2 S 4 6 2 3 1009.2 1008.9 9.2
20/05:00am 19.7 23.0 19.2 97 0.3 CALM 0 0 0 0 1008.9 1008.6 9.2
20/04:30am 20.1 23.2 19.6 97 0.3 SSE 2 6 1 3 1008.2 1007.9 9.2
20/04:00am 20.3 23.2 19.8 97 0.3 NE 4 4 2 2 1008.2 1007.9 9.2
20/03:30am 20.3 23.5 19.8 97 0.3 ESE 2 6 1 3 1007.7 1007.4 9.2
20/03:00am 20.5 24.2 20.0 97 0.3 CALM 0 2 0 1 1008.1 1007.8 9.2
20/02:30am 20.6 23.6 20.1 97 0.3 SW 4 11 2 6 1007.7 1007.4 9.2
20/02:00am 20.7 23.2 20.2 97 0.3 NE 7 11 4 6 1007.3 1007.0 9.2
20/01:30am 20.8 24.6 20.1 96 0.4 CALM 0 4 0 2 1008.0 1007.7 9.2
20/01:00am 20.9 23.6 20.2 96 0.5 ENE 6 9 3 5 1008.2 1007.9 9.0
20/12:30am 20.8 23.4 20.1 96 0.4 SSW 6 7 3 4 1009.5 1009.2 8.8
20/12:00am 21.2 23.8 20.5 96 0.5 S 7 13 4 7 1010.1 1009.8 8.8
 
Date/Time
EST
Temp
°C
App
Temp
°C
Dew
Point
°C
Rel
Hum
%
Delta-T
°C
Wind Press
QNH
hPa
Press
MSL
hPa
Rain since
9am
mm
Dir  Spd
km/h
Gust
km/h
Spd
kts
Gust
kts
19/11:30pm 21.6 24.0 20.8 95 0.5 SW 9 17 5 9 1010.5 1010.2 6.2
19/11:00pm 22.6 25.3 20.7 89 1.2 SSW 7 13 4 7 1010.1 1009.8 1.2
19/10:30pm 22.5 26.0 21.1 92 0.9 SSW 4 7 2 4 1009.9 1009.6 1.2
19/10:00pm 22.8 27.2 21.3 91 1.0 CALM 0 0 0 0 1009.6 1009.3 1.2
19/09:30pm 22.6 26.9 21.1 91 1.0 CALM 0 0 0 0 1009.5 1009.2 1.2
19/09:00pm 22.7 27.0 21.2 91 1.0 CALM 0 4 0 2 1009.6 1009.3 1.2
19/08:30pm 22.7 26.8 20.8 89 1.2 CALM 0 0 0 0 1008.9 1008.6 1.2
19/08:00pm 22.7 26.8 20.8 89 1.2 CALM 0 0 0 0 1008.6 1008.3 1.0
19/07:30pm 22.9 26.8 20.4 86 1.6 CALM 0 4 0 2 1008.1 1007.8 1.0
19/07:00pm 23.1 26.1 20.8 87 1.5 NE 6 9 3 5 1008.0 1007.7 1.0
19/06:30pm 23.4 26.8 20.9 86 1.6 ENE 4 4 2 2 1007.6 1007.3 1.0
19/06:00pm 23.3 26.9 20.6 85 1.8 SW 2 6 1 3 1007.3 1007.0 1.0
19/05:30pm 23.6 27.0 20.9 85 1.8 SW 4 7 2 4 1006.3 1006.0 1.0
19/05:00pm 24.1 27.1 20.8 82 2.2 NE 6 9 3 5 1006.3 1006.0 0.8
19/04:30pm 23.7 26.3 20.0 80 2.4 ENE 6 7 3 4 1006.5 1006.2 0.8
19/04:00pm 23.7 26.8 20.2 81 2.3 SSW 4 7 2 4 1006.4 1006.1 0.8
19/03:30pm 26.1 27.3 20.7 72 3.6 W 15 26 8 14 1006.7 1006.4 0.0
19/03:00pm 28.7 30.5 19.6 58 6.0 W 9 15 5 8 1006.5 1006.2 0.0
19/02:30pm 29.8 31.0 19.8 55 6.6 W 13 22 7 12 1006.6 1006.3 0.0
19/02:00pm 30.3 31.7 19.6 52 7.0 WNW 11 20 6 11 1006.4 1006.1 0.0
19/01:30pm 30.6 32.9 19.9 52 7.1 WNW 7 11 4 6 1006.6 1006.3 0.0
19/01:00pm 30.4 33.1 19.4 51 7.2 WNW 4 9 2 5 1007.1 1006.8 0.0
19/12:30pm 30.1 33.3 20.6 56 6.3 WNW 4 13 2 7 1007.4 1007.1 0.0
19/12:00pm 28.8 31.6 20.8 62 5.3 WNW 7 15 4 8 1007.8 1007.5 0.0
19/11:30am 28.4 32.0 21.2 65 4.8 SW 4 11 2 6 1008.1 1007.8 0.0
19/11:00am 27.6 30.9 21.4 69 4.1 SW 6 13 3 7 1008.4 1008.1 0.0
19/10:30am 26.1 29.4 20.7 72 3.6 WNW 4 9 2 5 1008.5 1008.2 0.0
19/10:00am 24.8 28.8 21.3 81 2.3 SSW 2 6 1 3 1008.8 1008.5 0.0
19/09:30am 23.8 27.0 20.5 82 2.2 SSW 4 7 2 4 1008.8 1008.5 0.0
19/09:00am 23.4 27.5 20.7 85 1.8 CALM 0 4 0 2 1008.7 1008.4 1.4
19/08:30am 22.8 26.1 20.7 88 1.4 NNW 4 7 2 4 1008.9 1008.6 1.4
19/08:00am 22.4 25.8 20.9 91 1.0 NNE 4 6 2 3 1008.8 1008.5 1.4
19/07:30am 22.2 25.5 20.8 92 0.9 NNE 4 6 2 3 1008.6 1008.3 1.4
19/07:00am 22.0 25.3 20.8 93 0.8 NNE 4 9 2 5 1008.7 1008.4 1.4
19/06:30am 21.8 24.8 20.8 94 0.7 NNE 6 9 3 5 1008.6 1008.3 1.4
19/06:00am 21.4 24.2 20.4 94 0.6 NNW 6 9 3 5 1008.7 1008.4 1.4
19/05:30am 21.4 24.2 20.4 94 0.6 N 6 9 3 5 1008.1 1007.8 1.4
19/05:00am 21.6 24.9 20.8 95 0.5 WNW 4 6 2 3 1007.7 1007.4 1.2
19/04:30am 21.7 24.9 20.5 93 0.8 SSE 4 6 2 3 1007.7 1007.4 1.2
19/04:00am 21.8 25.7 20.4 92 0.9 CALM 0 0 0 0 1008.4 1008.1 0.8
19/03:30am 21.9 24.7 20.4 91 1.0 SSW 6 11 3 6 1008.8 1008.5 0.2
19/03:00am 22.4 25.8 20.1 87 1.5 SE 2 7 1 4 1009.3 1009.0 0.0
19/02:30am 23.5 24.3 19.8 80 2.4 SW 15 20 8 11 1009.5 1009.2 0.0
19/02:00am 24.5 26.4 20.6 79 2.6 SW 11 24 6 13 1009.7 1009.4 0.0
19/01:30am 24.2 28.6 21.3 84 1.9 CALM 0 4 0 2 1009.5 1009.2 0.0
19/01:00am 24.4 28.4 21.3 83 2.0 E 2 4 1 2 1009.5 1009.2 0.0
19/12:30am 24.5 28.5 21.4 83 2.1 W 2 4 1 2 1009.8 1009.5 0.0
19/12:00am 24.5 28.8 21.2 82 2.2 CALM 0 0 0 0 1009.4 1009.1 0.0
 
Date/Time
EST
Temp
°C
App
Temp
°C
Dew
Point
°C
Rel
Hum
%
Delta-T
°C
Wind Press
QNH
hPa
Press
MSL
hPa
Rain since
9am
mm
Dir  Spd
km/h
Gust
km/h
Spd
kts
Gust
kts
18/11:30pm 24.8 29.2 21.3 81 2.3 CALM 0 0 0 0 1009.8 1009.5 0.0
18/11:00pm 24.8 29.2 21.3 81 2.3 CALM 0 4 0 2 1009.4 1009.1 0.0
18/10:30pm 24.7 28.4 20.8 79 2.6 E 2 6 1 3 1009.1 1008.8 0.0
18/10:00pm 24.7 28.0 20.8 79 2.6 ESE 4 4 2 2 1009.1 1008.8 0.0
18/09:30pm 24.8 28.1 20.7 78 2.7 E 4 6 2 3 1009.0 1008.7 0.0
18/09:00pm 24.9 28.0 20.2 75 3.1 ENE 4 7 2 4 1008.5 1008.2 0.0
18/08:30pm 25.1 27.7 20.1 74 3.3 ENE 6 7 3 4 1008.6 1008.3 0.0
18/08:00pm 25.4 28.0 20.0 72 3.5 NE 6 9 3 5 1008.4 1008.1 0.0
18/07:30pm 25.9 28.4 19.8 69 4.0 ENE 6 17 3 9 1008.1 1007.8 0.0
18/07:00pm 26.5 28.7 19.6 66 4.5 NE 7 17 4 9 1007.5 1007.2 0.0
18/06:30pm 27.5 28.9 19.6 62 5.1 NE 11 19 6 10 1007.1 1006.8 0.0
18/06:00pm 28.5 29.8 19.2 57 6.0 NE 11 17 6 9 1006.6 1006.3 0.0
18/05:30pm 29.8 30.3 19.2 53 6.9 NE 15 30 8 16 1006.4 1006.1 0.0
18/05:00pm 31.0 30.9 18.7 48 8.0 NE 17 26 9 14 1006.6 1006.3 0.0
18/04:30pm 32.3 31.0 14.9 35 10.7 NE 15 28 8 15 1006.7 1006.4 0.0
18/04:00pm 33.1 31.8 14.7 33 11.4 NE 15 26 8 14 1006.8 1006.5 0.0
18/03:30pm 33.8 33.9 16.6 35 10.9 NNE 11 19 6 10 1007.0 1006.7 0.0
18/03:00pm 33.8 33.4 17.1 37 10.7 N 15 24 8 13 1007.2 1006.9 0.0
18/02:30pm 34.0 34.2 17.7 38 10.5 NNE 13 20 7 11 1007.4 1007.1 0.0
18/02:00pm 33.8 34.9 17.9 38 10.3 NNE 9 20 5 11 1007.7 1007.4 0.0
18/01:30pm 33.9 35.0 18.0 39 10.3 NNE 9 19 5 10 1008.2 1007.9 0.0
18/01:00pm 32.6 34.4 18.8 44 9.0 NW 7 15 4 8 1008.7 1008.4 0.0
18/12:30pm 32.7 34.4 18.5 43 9.2 N 7 13 4 7 1009.1 1008.8 0.0
18/12:00pm 32.0 32.8 18.2 43 8.9 NNW 11 19 6 10 1009.7 1009.4 0.0
18/11:30am 31.6 32.7 18.9 47 8.3 NNW 11 20 6 11 1009.9 1009.6 0.0
18/11:00am 30.7 32.0 18.4 47 7.9 NW 9 17 5 9 1010.4 1010.1 0.0
18/10:30am 29.9 31.9 18.7 51 7.2 NNW 6 15 3 8 1011.0 1010.7 0.0
18/10:00am 28.9 30.4 18.9 54 6.5 NNW 9 13 5 7 1011.6 1011.3 0.0
18/09:30am 28.5 30.2 18.6 55 6.4 N 7 13 4 7 1011.8 1011.5 0.0
18/09:00am 28.6 30.6 19.2 56 6.1 N 7 15 4 8 1012.1 1011.8 0.0
18/08:30am 26.7 28.2 18.8 62 5.1 N 9 19 5 10 1012.3 1012.0 0.0
18/08:00am 26.1 28.0 19.0 65 4.6 NNE 7 11 4 6 1012.4 1012.1 0.0
18/07:30am 24.2 26.6 18.8 72 3.4 ENE 4 9 2 5 1012.6 1012.3 0.0
18/07:00am 23.9 26.7 18.8 73 3.2 NNE 2 7 1 4 1012.4 1012.1 0.0
18/06:30am 22.8 26.3 19.6 82 2.1 CALM 0 0 0 0 1012.5 1012.2 0.0
18/06:00am 21.0 24.2 18.8 87 1.4 CALM 0 0 0 0 1012.3 1012.0 0.0
18/05:30am 21.1 23.5 18.9 87 1.4 SSW 4 6 2 3 1011.7 1011.4 0.0
18/05:00am 22.4 25.0 19.2 82 2.0 N 4 7 2 4 1011.3 1011.0 0.0
18/04:30am 21.6 23.6 18.8 84 1.8 N 6 7 3 4 1011.1 1010.8 0.0
18/04:00am 22.2 24.7 19.0 82 2.0 NE 4 7 2 4 1011.2 1010.9 0.0
18/03:30am 22.0 24.0 18.8 82 2.0 ENE 6 9 3 5 1011.6 1011.3 0.0
18/03:00am 21.4 23.3 18.6 84 1.8 NE 6 7 3 4 1012.0 1011.7 0.0
18/02:30am 22.0 25.3 19.0 83 1.9 CALM 0 0 0 0 1013.0 1012.8 0.0
18/02:00am 22.1 24.8 18.7 81 2.1 SE 2 6 1 3 1014.0 1013.8 0.0
18/01:30am 22.8 25.3 19.0 79 2.4 SSE 4 6 2 3 1014.3 1014.1 0.0
18/01:00am 22.8 25.0 19.2 80 2.3 E 6 9 3 5 1014.5 1014.3 0.0
18/12:30am 22.0 24.3 19.4 85 1.7 SSW 6 7 3 4 1015.1 1014.9 0.0
18/12:00am 21.3 23.9 18.5 84 1.8 S 2 4 1 2 1014.2 1014.0 0.0
 
Date/Time
EST
Temp
°C
App
Temp
°C
Dew
Point
°C
Rel
Hum
%
Delta-T
°C
Wind Press
QNH
hPa
Press
MSL
hPa
Rain since
9am
mm
Dir  Spd
km/h
Gust
km/h
Spd
kts
Gust
kts
17/11:30pm 22.2 24.6 18.8 81 2.1 ENE 4 6 2 3 1014.0 1013.8 0.0
17/11:00pm 21.8 23.7 18.6 82 2.0 ENE 6 9 3 5 1013.8 1013.6 0.0
17/10:30pm 22.2 24.9 18.6 80 2.3 NE 2 4 1 2 1014.3 1014.1 0.0
17/10:00pm 22.4 25.1 18.6 79 2.4 E 2 4 1 2 1014.0 1013.8 0.0
17/09:30pm 23.0 25.6 18.5 76 2.8 ENE 2 4 1 2 1013.9 1013.7 0.0
17/09:00pm 23.4 25.7 18.5 74 3.1 ENE 4 9 2 5 1013.4 1013.2 0.0

Other Formats:

Comma delimited format used in spreadsheet applications
http://www.bom.gov.au/fwo/IDQ60801/IDQ60801.95575.axf

JavaScript Object Notation format (JSON) in row-major order
http://www.bom.gov.au/fwo/IDQ60801/IDQ60801.95575.json